sensor_id;sensor_type;location;lat;lon;timestamp;P1;durP1;ratioP1;P2;durP2;ratioP2
41964;SDS011;50120;53.250;8.702;2022-09-30T00:01:33;15.35;;;10.07;;
41964;SDS011;50120;53.250;8.702;2022-09-30T00:03:59;13.02;;;9.98;;
41964;SDS011;50120;53.250;8.702;2022-09-30T00:06:26;14.00;;;10.20;;
41964;SDS011;50120;53.250;8.702;2022-09-30T00:08:54;16.58;;;10.65;;
41964;SDS011;50120;53.250;8.702;2022-09-30T00:11:22;15.35;;;10.27;;
41964;SDS011;50120;53.250;8.702;2022-09-30T00:13:50;16.80;;;10.40;;
41964;SDS011;50120;53.250;8.702;2022-09-30T00:16:17;15.15;;;10.18;;
41964;SDS011;50120;53.250;8.702;2022-09-30T00:18:48;15.05;;;10.07;;
41964;SDS011;50120;53.250;8.702;2022-09-30T00:21:15;15.15;;;10.20;;
41964;SDS011;50120;53.250;8.702;2022-09-30T00:23:42;14.88;;;10.40;;
41964;SDS011;50120;53.250;8.702;2022-09-30T00:26:12;15.73;;;10.00;;
41964;SDS011;50120;53.250;8.702;2022-09-30T00:28:40;15.48;;;10.32;;
41964;SDS011;50120;53.250;8.702;2022-09-30T00:31:09;15.30;;;10.88;;
41964;SDS011;50120;53.250;8.702;2022-09-30T00:33:38;16.50;;;10.25;;
41964;SDS011;50120;53.250;8.702;2022-09-30T00:36:05;14.02;;;10.10;;
41964;SDS011;50120;53.250;8.702;2022-09-30T00:38:31;19.23;;;10.50;;
41964;SDS011;50120;53.250;8.702;2022-09-30T00:40:57;15.05;;;9.85;;
41964;SDS011;50120;53.250;8.702;2022-09-30T00:46:31;17.00;;;11.43;;
41964;SDS011;50120;53.250;8.702;2022-09-30T00:49:08;16.55;;;11.15;;
41964;SDS011;50120;53.250;8.702;2022-09-30T00:51:42;18.83;;;11.18;;
41964;SDS011;50120;53.250;8.702;2022-09-30T00:54:13;16.02;;;10.60;;
41964;SDS011;50120;53.250;8.702;2022-09-30T00:56:45;15.93;;;10.77;;
41964;SDS011;50120;53.250;8.702;2022-09-30T00:59:24;19.88;;;11.90;;
41964;SDS011;50120;53.250;8.702;2022-09-30T01:01:55;18.75;;;11.65;;
41964;SDS011;50120;53.250;8.702;2022-09-30T01:04:22;17.73;;;11.60;;
41964;SDS011;50120;53.250;8.702;2022-09-30T01:06:50;19.85;;;12.55;;
41964;SDS011;50120;53.250;8.702;2022-09-30T01:09:17;16.30;;;11.60;;
41964;SDS011;50120;53.250;8.702;2022-09-30T01:11:43;18.77;;;12.48;;
41964;SDS011;50120;53.250;8.702;2022-09-30T01:14:11;19.15;;;13.23;;
41964;SDS011;50120;53.250;8.702;2022-09-30T01:19:23;14.95;;;11.55;;
41964;SDS011;50120;53.250;8.702;2022-09-30T01:22:25;17.70;;;12.00;;
41964;SDS011;50120;53.250;8.702;2022-09-30T01:25:00;17.92;;;12.63;;
41964;SDS011;50120;53.250;8.702;2022-09-30T01:38:20;16.88;;;12.10;;
41964;SDS011;50120;53.250;8.702;2022-09-30T01:46:39;19.25;;;13.60;;
41964;SDS011;50120;53.250;8.702;2022-09-30T01:52:15;19.15;;;12.52;;
41964;SDS011;50120;53.250;8.702;2022-09-30T01:54:52;20.15;;;13.32;;
41964;SDS011;50120;53.250;8.702;2022-09-30T01:57:30;21.70;;;14.05;;
41964;SDS011;50120;53.250;8.702;2022-09-30T02:00:09;20.05;;;13.48;;
41964;SDS011;50120;53.250;8.702;2022-09-30T02:02:45;19.48;;;13.18;;
41964;SDS011;50120;53.250;8.702;2022-09-30T02:08:06;21.13;;;14.18;;
41964;SDS011;50120;53.250;8.702;2022-09-30T02:10:46;24.98;;;14.93;;
41964;SDS011;50120;53.250;8.702;2022-09-30T02:13:31;22.50;;;14.90;;
41964;SDS011;50120;53.250;8.702;2022-09-30T02:16:08;21.30;;;14.93;;
41964;SDS011;50120;53.250;8.702;2022-09-30T02:21:33;20.60;;;14.90;;
41964;SDS011;50120;53.250;8.702;2022-09-30T02:24:06;21.08;;;14.25;;
41964;SDS011;50120;53.250;8.702;2022-09-30T02:26:38;26.20;;;15.63;;
41964;SDS011;50120;53.250;8.702;2022-09-30T02:29:12;21.10;;;14.32;;
41964;SDS011;50120;53.250;8.702;2022-09-30T02:31:42;21.52;;;14.05;;
41964;SDS011;50120;53.250;8.702;2022-09-30T02:34:11;20.92;;;14.40;;
41964;SDS011;50120;53.250;8.702;2022-09-30T02:39:15;19.08;;;13.43;;
41964;SDS011;50120;53.250;8.702;2022-09-30T02:41:50;18.15;;;13.25;;
41964;SDS011;50120;53.250;8.702;2022-09-30T02:44:22;18.98;;;13.65;;
41964;SDS011;50120;53.250;8.702;2022-09-30T02:46:52;20.00;;;13.73;;
41964;SDS011;50120;53.250;8.702;2022-09-30T02:49:38;18.48;;;13.43;;
41964;SDS011;50120;53.250;8.702;2022-09-30T02:52:33;20.67;;;14.20;;
41964;SDS011;50120;53.250;8.702;2022-09-30T02:55:38;19.50;;;13.18;;
41964;SDS011;50120;53.250;8.702;2022-09-30T02:58:24;18.45;;;13.23;;
41964;SDS011;50120;53.250;8.702;2022-09-30T03:00:54;22.40;;;14.05;;
41964;SDS011;50120;53.250;8.702;2022-09-30T03:03:21;20.55;;;13.75;;
41964;SDS011;50120;53.250;8.702;2022-09-30T03:05:56;18.88;;;12.93;;
41964;SDS011;50120;53.250;8.702;2022-09-30T03:08:22;20.60;;;13.65;;
41964;SDS011;50120;53.250;8.702;2022-09-30T03:10:49;18.30;;;13.57;;
41964;SDS011;50120;53.250;8.702;2022-09-30T03:24:46;18.17;;;13.35;;
41964;SDS011;50120;53.250;8.702;2022-09-30T03:32:22;17.63;;;13.10;;
41964;SDS011;50120;53.250;8.702;2022-09-30T03:35:17;16.58;;;11.93;;
41964;SDS011;50120;53.250;8.702;2022-09-30T03:43:29;20.95;;;13.65;;
41964;SDS011;50120;53.250;8.702;2022-09-30T03:48:54;17.98;;;12.75;;
41964;SDS011;50120;53.250;8.702;2022-09-30T03:51:22;20.20;;;14.27;;
41964;SDS011;50120;53.250;8.702;2022-09-30T03:53:53;20.52;;;13.93;;
41964;SDS011;50120;53.250;8.702;2022-09-30T03:56:27;19.90;;;13.88;;
41964;SDS011;50120;53.250;8.702;2022-09-30T03:58:54;22.30;;;13.48;;
41964;SDS011;50120;53.250;8.702;2022-09-30T04:01:20;22.65;;;14.25;;
41964;SDS011;50120;53.250;8.702;2022-09-30T04:03:50;20.10;;;13.93;;
41964;SDS011;50120;53.250;8.702;2022-09-30T04:06:18;23.08;;;14.25;;
41964;SDS011;50120;53.250;8.702;2022-09-30T04:08:45;24.90;;;14.77;;
41964;SDS011;50120;53.250;8.702;2022-09-30T04:11:11;22.13;;;14.88;;
41964;SDS011;50120;53.250;8.702;2022-09-30T04:13:37;22.95;;;15.23;;
41964;SDS011;50120;53.250;8.702;2022-09-30T04:16:03;25.25;;;14.85;;
41964;SDS011;50120;53.250;8.702;2022-09-30T04:18:30;24.20;;;15.30;;
41964;SDS011;50120;53.250;8.702;2022-09-30T04:20:57;28.52;;;16.40;;
41964;SDS011;50120;53.250;8.702;2022-09-30T04:23:23;27.42;;;16.05;;
41964;SDS011;50120;53.250;8.702;2022-09-30T04:25:55;27.50;;;15.68;;
41964;SDS011;50120;53.250;8.702;2022-09-30T04:28:21;24.65;;;15.63;;
41964;SDS011;50120;53.250;8.702;2022-09-30T04:30:47;27.75;;;16.00;;
41964;SDS011;50120;53.250;8.702;2022-09-30T04:33:13;22.30;;;15.30;;
41964;SDS011;50120;53.250;8.702;2022-09-30T04:35:38;26.67;;;15.77;;
41964;SDS011;50120;53.250;8.702;2022-09-30T04:38:04;25.40;;;15.13;;
41964;SDS011;50120;53.250;8.702;2022-09-30T04:40:31;22.15;;;15.00;;
41964;SDS011;50120;53.250;8.702;2022-09-30T04:43:01;24.60;;;15.38;;
41964;SDS011;50120;53.250;8.702;2022-09-30T04:45:27;24.30;;;15.15;;
41964;SDS011;50120;53.250;8.702;2022-09-30T04:47:54;25.27;;;14.88;;
41964;SDS011;50120;53.250;8.702;2022-09-30T04:50:19;25.15;;;15.18;;
41964;SDS011;50120;53.250;8.702;2022-09-30T04:52:45;24.38;;;15.77;;
41964;SDS011;50120;53.250;8.702;2022-09-30T04:55:11;23.63;;;15.05;;
41964;SDS011;50120;53.250;8.702;2022-09-30T04:57:37;21.50;;;15.45;;
41964;SDS011;50120;53.250;8.702;2022-09-30T05:00:04;22.73;;;15.32;;
41964;SDS011;50120;53.250;8.702;2022-09-30T05:02:33;26.77;;;16.17;;
41964;SDS011;50120;53.250;8.702;2022-09-30T05:04:59;27.15;;;16.35;;
41964;SDS011;50120;53.250;8.702;2022-09-30T05:07:24;24.83;;;16.55;;
41964;SDS011;50120;53.250;8.702;2022-09-30T05:09:50;24.60;;;15.82;;
41964;SDS011;50120;53.250;8.702;2022-09-30T05:12:17;28.50;;;18.67;;
41964;SDS011;50120;53.250;8.702;2022-09-30T05:14:43;33.80;;;21.50;;
41964;SDS011;50120;53.250;8.702;2022-09-30T05:17:09;29.08;;;18.23;;
41964;SDS011;50120;53.250;8.702;2022-09-30T05:19:34;29.23;;;18.98;;
41964;SDS011;50120;53.250;8.702;2022-09-30T05:22:00;25.40;;;18.13;;
41964;SDS011;50120;53.250;8.702;2022-09-30T05:24:26;29.55;;;19.08;;
41964;SDS011;50120;53.250;8.702;2022-09-30T05:26:54;30.70;;;18.60;;
41964;SDS011;50120;53.250;8.702;2022-09-30T05:29:19;34.78;;;19.75;;
41964;SDS011;50120;53.250;8.702;2022-09-30T05:31:45;30.10;;;18.38;;
41964;SDS011;50120;53.250;8.702;2022-09-30T05:34:11;34.72;;;20.10;;
41964;SDS011;50120;53.250;8.702;2022-09-30T05:36:36;30.65;;;19.25;;
41964;SDS011;50120;53.250;8.702;2022-09-30T05:39:03;27.98;;;18.50;;
41964;SDS011;50120;53.250;8.702;2022-09-30T05:41:29;27.40;;;17.27;;
41964;SDS011;50120;53.250;8.702;2022-09-30T05:43:54;30.83;;;18.73;;
41964;SDS011;50120;53.250;8.702;2022-09-30T05:46:21;30.60;;;18.63;;
41964;SDS011;50120;53.250;8.702;2022-09-30T05:48:46;26.60;;;17.95;;
41964;SDS011;50120;53.250;8.702;2022-09-30T05:51:12;28.00;;;18.17;;
41964;SDS011;50120;53.250;8.702;2022-09-30T05:53:38;29.20;;;19.30;;
41964;SDS011;50120;53.250;8.702;2022-09-30T05:56:07;28.10;;;17.85;;
41964;SDS011;50120;53.250;8.702;2022-09-30T05:58:34;27.98;;;19.08;;
41964;SDS011;50120;53.250;8.702;2022-09-30T06:01:04;31.92;;;20.13;;
41964;SDS011;50120;53.250;8.702;2022-09-30T06:03:32;35.40;;;21.15;;
41964;SDS011;50120;53.250;8.702;2022-09-30T06:05:58;33.38;;;19.98;;
41964;SDS011;50120;53.250;8.702;2022-09-30T06:08:24;36.92;;;20.55;;
41964;SDS011;50120;53.250;8.702;2022-09-30T06:10:50;31.15;;;19.92;;
41964;SDS011;50120;53.250;8.702;2022-09-30T06:13:16;32.42;;;20.70;;
41964;SDS011;50120;53.250;8.702;2022-09-30T06:15:42;38.88;;;21.90;;
41964;SDS011;50120;53.250;8.702;2022-09-30T06:18:08;32.75;;;19.65;;
41964;SDS011;50120;53.250;8.702;2022-09-30T06:20:36;33.30;;;20.35;;
41964;SDS011;50120;53.250;8.702;2022-09-30T06:23:02;31.30;;;20.10;;
41964;SDS011;50120;53.250;8.702;2022-09-30T06:25:29;33.95;;;21.75;;
41964;SDS011;50120;53.250;8.702;2022-09-30T06:27:55;33.50;;;20.80;;
41964;SDS011;50120;53.250;8.702;2022-09-30T06:30:21;32.28;;;20.80;;
41964;SDS011;50120;53.250;8.702;2022-09-30T06:32:47;35.63;;;21.40;;
41964;SDS011;50120;53.250;8.702;2022-09-30T06:35:13;36.72;;;22.23;;
41964;SDS011;50120;53.250;8.702;2022-09-30T06:37:39;35.92;;;21.95;;
41964;SDS011;50120;53.250;8.702;2022-09-30T06:40:06;37.53;;;21.83;;
41964;SDS011;50120;53.250;8.702;2022-09-30T06:42:32;35.10;;;20.52;;
41964;SDS011;50120;53.250;8.702;2022-09-30T06:44:58;38.05;;;21.08;;
41964;SDS011;50120;53.250;8.702;2022-09-30T06:47:24;35.92;;;21.33;;
41964;SDS011;50120;53.250;8.702;2022-09-30T06:49:50;34.78;;;20.25;;
41964;SDS011;50120;53.250;8.702;2022-09-30T06:52:17;36.47;;;21.38;;
41964;SDS011;50120;53.250;8.702;2022-09-30T06:54:44;33.22;;;20.45;;
41964;SDS011;50120;53.250;8.702;2022-09-30T06:57:11;32.10;;;19.65;;
41964;SDS011;50120;53.250;8.702;2022-09-30T06:59:37;30.98;;;18.88;;
41964;SDS011;50120;53.250;8.702;2022-09-30T07:02:03;32.42;;;19.67;;
41964;SDS011;50120;53.250;8.702;2022-09-30T07:04:29;33.58;;;20.20;;
41964;SDS011;50120;53.250;8.702;2022-09-30T07:06:55;34.95;;;19.10;;
41964;SDS011;50120;53.250;8.702;2022-09-30T07:09:20;32.33;;;19.90;;
41964;SDS011;50120;53.250;8.702;2022-09-30T07:11:46;33.67;;;19.58;;
41964;SDS011;50120;53.250;8.702;2022-09-30T07:14:12;35.70;;;21.42;;
41964;SDS011;50120;53.250;8.702;2022-09-30T07:16:38;30.83;;;19.05;;
41964;SDS011;50120;53.250;8.702;2022-09-30T07:19:04;26.42;;;17.00;;
41964;SDS011;50120;53.250;8.702;2022-09-30T07:21:31;33.00;;;17.83;;
41964;SDS011;50120;53.250;8.702;2022-09-30T07:23:57;29.08;;;17.02;;
41964;SDS011;50120;53.250;8.702;2022-09-30T07:26:24;29.95;;;19.33;;
41964;SDS011;50120;53.250;8.702;2022-09-30T07:28:51;30.30;;;19.30;;
41964;SDS011;50120;53.250;8.702;2022-09-30T07:31:18;26.95;;;17.75;;
41964;SDS011;50120;53.250;8.702;2022-09-30T07:33:46;29.60;;;18.60;;
41964;SDS011;50120;53.250;8.702;2022-09-30T07:36:15;27.92;;;16.90;;
41964;SDS011;50120;53.250;8.702;2022-09-30T07:38:43;23.30;;;15.18;;
41964;SDS011;50120;53.250;8.702;2022-09-30T07:41:14;22.67;;;14.95;;
41964;SDS011;50120;53.250;8.702;2022-09-30T07:43:43;22.65;;;13.48;;
41964;SDS011;50120;53.250;8.702;2022-09-30T07:46:14;18.90;;;12.35;;
41964;SDS011;50120;53.250;8.702;2022-09-30T07:48:51;16.55;;;11.95;;
41964;SDS011;50120;53.250;8.702;2022-09-30T07:51:28;19.52;;;11.93;;
41964;SDS011;50120;53.250;8.702;2022-09-30T07:53:57;18.95;;;12.35;;
41964;SDS011;50120;53.250;8.702;2022-09-30T07:56:24;15.15;;;10.75;;
41964;SDS011;50120;53.250;8.702;2022-09-30T07:58:54;18.60;;;12.27;;
41964;SDS011;50120;53.250;8.702;2022-09-30T08:01:23;16.95;;;11.80;;
41964;SDS011;50120;53.250;8.702;2022-09-30T08:03:56;15.98;;;11.60;;
41964;SDS011;50120;53.250;8.702;2022-09-30T08:06:24;15.75;;;10.35;;
41964;SDS011;50120;53.250;8.702;2022-09-30T08:08:52;13.77;;;9.77;;
41964;SDS011;50120;53.250;8.702;2022-09-30T08:11:19;13.75;;;9.73;;
41964;SDS011;50120;53.250;8.702;2022-09-30T08:13:52;12.88;;;10.18;;
41964;SDS011;50120;53.250;8.702;2022-09-30T08:16:19;17.45;;;9.60;;
41964;SDS011;50120;53.250;8.702;2022-09-30T08:18:46;12.52;;;8.85;;
41964;SDS011;50120;53.250;8.702;2022-09-30T08:21:12;12.38;;;7.85;;
41964;SDS011;50120;53.250;8.702;2022-09-30T08:23:39;11.02;;;7.03;;
41964;SDS011;50120;53.250;8.702;2022-09-30T08:26:10;10.05;;;7.07;;
41964;SDS011;50120;53.250;8.702;2022-09-30T08:28:36;11.80;;;6.80;;
41964;SDS011;50120;53.250;8.702;2022-09-30T08:31:06;8.25;;;6.68;;
41964;SDS011;50120;53.250;8.702;2022-09-30T08:33:34;8.82;;;6.57;;
41964;SDS011;50120;53.250;8.702;2022-09-30T08:36:04;9.98;;;7.40;;
41964;SDS011;50120;53.250;8.702;2022-09-30T08:38:32;9.63;;;6.88;;
41964;SDS011;50120;53.250;8.702;2022-09-30T08:46:35;8.02;;;6.30;;
41964;SDS011;50120;53.250;8.702;2022-09-30T08:52:01;7.78;;;6.40;;
41964;SDS011;50120;53.250;8.702;2022-09-30T08:54:35;8.30;;;5.57;;
41964;SDS011;50120;53.250;8.702;2022-09-30T08:57:01;7.03;;;5.47;;
41964;SDS011;50120;53.250;8.702;2022-09-30T08:59:31;8.70;;;5.30;;
41964;SDS011;50120;53.250;8.702;2022-09-30T09:04:47;9.25;;;6.05;;
41964;SDS011;50120;53.250;8.702;2022-09-30T09:10:03;10.55;;;6.40;;
41964;SDS011;50120;53.250;8.702;2022-09-30T09:18:47;7.63;;;6.20;;
41964;SDS011;50120;53.250;8.702;2022-09-30T09:21:30;10.75;;;5.97;;
41964;SDS011;50120;53.250;8.702;2022-09-30T09:23:57;7.30;;;5.38;;
41964;SDS011;50120;53.250;8.702;2022-09-30T09:26:26;8.35;;;6.43;;
41964;SDS011;50120;53.250;8.702;2022-09-30T09:29:05;12.60;;;6.18;;
41964;SDS011;50120;53.250;8.702;2022-09-30T09:31:48;9.85;;;5.25;;
41964;SDS011;50120;53.250;8.702;2022-09-30T09:34:14;6.70;;;5.20;;
41964;SDS011;50120;53.250;8.702;2022-09-30T09:44:55;9.73;;;5.38;;
41964;SDS011;50120;53.250;8.702;2022-09-30T09:47:25;5.57;;;4.40;;
41964;SDS011;50120;53.250;8.702;2022-09-30T09:49:57;6.38;;;5.15;;
41964;SDS011;50120;53.250;8.702;2022-09-30T09:55:20;7.82;;;5.20;;
41964;SDS011;50120;53.250;8.702;2022-09-30T09:57:46;7.95;;;5.07;;
41964;SDS011;50120;53.250;8.702;2022-09-30T10:00:23;7.03;;;4.95;;
41964;SDS011;50120;53.250;8.702;2022-09-30T10:03:13;6.45;;;4.38;;
41964;SDS011;50120;53.250;8.702;2022-09-30T10:06:02;7.32;;;4.60;;
41964;SDS011;50120;53.250;8.702;2022-09-30T10:08:29;6.55;;;4.65;;
41964;SDS011;50120;53.250;8.702;2022-09-30T10:10:57;10.48;;;5.00;;
41964;SDS011;50120;53.250;8.702;2022-09-30T10:13:29;6.72;;;5.03;;
41964;SDS011;50120;53.250;8.702;2022-09-30T10:16:34;6.22;;;4.90;;
41964;SDS011;50120;53.250;8.702;2022-09-30T10:19:02;6.95;;;4.95;;
41964;SDS011;50120;53.250;8.702;2022-09-30T10:21:29;5.78;;;4.43;;
41964;SDS011;50120;53.250;8.702;2022-09-30T10:23:56;7.82;;;4.70;;
41964;SDS011;50120;53.250;8.702;2022-09-30T10:26:26;5.75;;;4.50;;
41964;SDS011;50120;53.250;8.702;2022-09-30T10:28:53;5.78;;;4.50;;
41964;SDS011;50120;53.250;8.702;2022-09-30T10:31:32;7.40;;;4.70;;
41964;SDS011;50120;53.250;8.702;2022-09-30T10:34:13;6.03;;;4.38;;
41964;SDS011;50120;53.250;8.702;2022-09-30T10:36:46;6.88;;;4.80;;
41964;SDS011;50120;53.250;8.702;2022-09-30T10:47:47;6.10;;;4.18;;
41964;SDS011;50120;53.250;8.702;2022-09-30T10:50:18;7.03;;;4.28;;
41964;SDS011;50120;53.250;8.702;2022-09-30T10:52:51;6.97;;;4.30;;
41964;SDS011;50120;53.250;8.702;2022-09-30T10:57:44;7.35;;;4.68;;
41964;SDS011;50120;53.250;8.702;2022-09-30T11:00:18;9.13;;;5.05;;
41964;SDS011;50120;53.250;8.702;2022-09-30T11:05:31;8.75;;;4.35;;
41964;SDS011;50120;53.250;8.702;2022-09-30T11:08:17;6.82;;;4.38;;
41964;SDS011;50120;53.250;8.702;2022-09-30T11:19:25;6.72;;;4.97;;
41964;SDS011;50120;53.250;8.702;2022-09-30T11:25:45;7.35;;;5.60;;
41964;SDS011;50120;53.250;8.702;2022-09-30T11:30:52;7.13;;;5.82;;
41964;SDS011;50120;53.250;8.702;2022-09-30T11:36:20;6.57;;;5.25;;
41964;SDS011;50120;53.250;8.702;2022-09-30T11:38:58;9.00;;;5.45;;
41964;SDS011;50120;53.250;8.702;2022-09-30T11:41:36;6.95;;;5.03;;
41964;SDS011;50120;53.250;8.702;2022-09-30T11:52:35;4.88;;;4.38;;
41964;SDS011;50120;53.250;8.702;2022-09-30T11:58:22;5.10;;;4.22;;
41964;SDS011;50120;53.250;8.702;2022-09-30T12:00:57;5.63;;;4.20;;
41964;SDS011;50120;53.250;8.702;2022-09-30T12:03:55;5.60;;;3.60;;
41964;SDS011;50120;53.250;8.702;2022-09-30T12:06:32;3.83;;;3.17;;
41964;SDS011;50120;53.250;8.702;2022-09-30T12:09:05;4.15;;;3.17;;
41964;SDS011;50120;53.250;8.702;2022-09-30T12:14:22;4.78;;;3.40;;
41964;SDS011;50120;53.250;8.702;2022-09-30T12:16:52;5.67;;;3.27;;
41964;SDS011;50120;53.250;8.702;2022-09-30T12:19:29;6.50;;;3.40;;
41964;SDS011;50120;53.250;8.702;2022-09-30T12:22:11;3.72;;;2.47;;
41964;SDS011;50120;53.250;8.702;2022-09-30T12:24:42;4.20;;;3.28;;
41964;SDS011;50120;53.250;8.702;2022-09-30T12:29:59;3.20;;;2.80;;
41964;SDS011;50120;53.250;8.702;2022-09-30T12:47:11;4.47;;;3.63;;
41964;SDS011;50120;53.250;8.702;2022-09-30T12:49:54;5.13;;;3.15;;
41964;SDS011;50120;53.250;8.702;2022-09-30T12:52:23;4.80;;;3.80;;
41964;SDS011;50120;53.250;8.702;2022-09-30T12:54:57;4.63;;;3.95;;
41964;SDS011;50120;53.250;8.702;2022-09-30T12:57:38;6.13;;;3.78;;
41964;SDS011;50120;53.250;8.702;2022-09-30T13:00:13;6.63;;;4.45;;
41964;SDS011;50120;53.250;8.702;2022-09-30T13:03:26;6.47;;;5.05;;
41964;SDS011;50120;53.250;8.702;2022-09-30T13:13:21;6.65;;;4.43;;
41964;SDS011;50120;53.250;8.702;2022-09-30T13:15:49;5.43;;;3.92;;
41964;SDS011;50120;53.250;8.702;2022-09-30T13:21:19;7.72;;;5.00;;
41964;SDS011;50120;53.250;8.702;2022-09-30T13:28:48;12.57;;;6.40;;
41964;SDS011;50120;53.250;8.702;2022-09-30T13:31:19;13.40;;;6.40;;
41964;SDS011;50120;53.250;8.702;2022-09-30T13:41:31;10.98;;;6.45;;
41964;SDS011;50120;53.250;8.702;2022-09-30T13:44:08;11.18;;;7.10;;
41964;SDS011;50120;53.250;8.702;2022-09-30T13:49:37;9.27;;;6.80;;
41964;SDS011;50120;53.250;8.702;2022-09-30T13:52:25;9.50;;;7.10;;
41964;SDS011;50120;53.250;8.702;2022-09-30T13:54:56;11.02;;;7.70;;
41964;SDS011;50120;53.250;8.702;2022-09-30T13:57:31;10.93;;;7.63;;
41964;SDS011;50120;53.250;8.702;2022-09-30T14:00:10;13.60;;;8.02;;
41964;SDS011;50120;53.250;8.702;2022-09-30T14:02:47;12.57;;;8.13;;
41964;SDS011;50120;53.250;8.702;2022-09-30T14:05:25;11.05;;;7.63;;
41964;SDS011;50120;53.250;8.702;2022-09-30T14:16:23;10.38;;;7.78;;
41964;SDS011;50120;53.250;8.702;2022-09-30T14:21:51;10.80;;;8.20;;
41964;SDS011;50120;53.250;8.702;2022-09-30T14:24:25;11.88;;;8.52;;
41964;SDS011;50120;53.250;8.702;2022-09-30T14:32:47;12.02;;;7.80;;
41964;SDS011;50120;53.250;8.702;2022-09-30T14:35:20;11.32;;;7.25;;
41964;SDS011;50120;53.250;8.702;2022-09-30T14:40:27;11.27;;;7.30;;
41964;SDS011;50120;53.250;8.702;2022-09-30T14:42:58;10.88;;;7.18;;
41964;SDS011;50120;53.250;8.702;2022-09-30T14:45:31;12.57;;;7.78;;
41964;SDS011;50120;53.250;8.702;2022-09-30T14:48:07;9.52;;;7.35;;
41964;SDS011;50120;53.250;8.702;2022-09-30T14:50:45;14.50;;;8.00;;
41964;SDS011;50120;53.250;8.702;2022-09-30T14:55:50;11.15;;;7.40;;
41964;SDS011;50120;53.250;8.702;2022-09-30T15:01:17;11.02;;;8.13;;
41964;SDS011;50120;53.250;8.702;2022-09-30T15:03:51;12.00;;;8.02;;
41964;SDS011;50120;53.250;8.702;2022-09-30T15:06:29;10.82;;;7.65;;
41964;SDS011;50120;53.250;8.702;2022-09-30T15:09:04;12.57;;;7.95;;
41964;SDS011;50120;53.250;8.702;2022-09-30T15:11:32;7.80;;;5.97;;
41964;SDS011;50120;53.250;8.702;2022-09-30T15:14:03;12.63;;;8.10;;
41964;SDS011;50120;53.250;8.702;2022-09-30T15:16:33;10.80;;;8.00;;
41964;SDS011;50120;53.250;8.702;2022-09-30T15:18:59;11.70;;;8.15;;
41964;SDS011;50120;53.250;8.702;2022-09-30T15:21:25;11.57;;;8.48;;
41964;SDS011;50120;53.250;8.702;2022-09-30T15:23:55;11.32;;;8.40;;
41964;SDS011;50120;53.250;8.702;2022-09-30T15:26:24;11.13;;;7.88;;
41964;SDS011;50120;53.250;8.702;2022-09-30T15:28:51;12.93;;;8.75;;
41964;SDS011;50120;53.250;8.702;2022-09-30T15:31:21;10.27;;;8.65;;
41964;SDS011;50120;53.250;8.702;2022-09-30T15:34:03;11.23;;;7.80;;
41964;SDS011;50120;53.250;8.702;2022-09-30T15:36:33;12.32;;;8.27;;
41964;SDS011;50120;53.250;8.702;2022-09-30T15:39:00;13.40;;;8.20;;
41964;SDS011;50120;53.250;8.702;2022-09-30T15:41:27;10.30;;;7.90;;
41964;SDS011;50120;53.250;8.702;2022-09-30T15:43:53;10.65;;;8.00;;
41964;SDS011;50120;53.250;8.702;2022-09-30T15:48:53;11.55;;;7.75;;
41964;SDS011;50120;53.250;8.702;2022-09-30T15:51:38;11.18;;;7.80;;
41964;SDS011;50120;53.250;8.702;2022-09-30T15:56:40;12.70;;;9.30;;
41964;SDS011;50120;53.250;8.702;2022-09-30T15:59:10;13.52;;;9.70;;
41964;SDS011;50120;53.250;8.702;2022-09-30T16:09:50;11.65;;;8.52;;
41964;SDS011;50120;53.250;8.702;2022-09-30T16:14:52;11.35;;;7.90;;
41964;SDS011;50120;53.250;8.702;2022-09-30T16:17:35;8.82;;;7.45;;
41964;SDS011;50120;53.250;8.702;2022-09-30T16:20:06;10.30;;;7.35;;
41964;SDS011;50120;53.250;8.702;2022-09-30T16:22:55;9.70;;;7.35;;
41964;SDS011;50120;53.250;8.702;2022-09-30T16:25:27;9.18;;;6.80;;
41964;SDS011;50120;53.250;8.702;2022-09-30T16:28:01;8.90;;;7.28;;
41964;SDS011;50120;53.250;8.702;2022-09-30T16:30:41;9.40;;;7.15;;
41964;SDS011;50120;53.250;8.702;2022-09-30T16:33:10;12.30;;;7.50;;
41964;SDS011;50120;53.250;8.702;2022-09-30T16:35:40;10.13;;;7.40;;
41964;SDS011;50120;53.250;8.702;2022-09-30T16:38:11;9.18;;;7.63;;
41964;SDS011;50120;53.250;8.702;2022-09-30T16:40:39;11.88;;;7.57;;
41964;SDS011;50120;53.250;8.702;2022-09-30T16:43:05;11.02;;;7.63;;
41964;SDS011;50120;53.250;8.702;2022-09-30T16:45:32;17.60;;;11.05;;
41964;SDS011;50120;53.250;8.702;2022-09-30T16:47:58;12.82;;;9.20;;
41964;SDS011;50120;53.250;8.702;2022-09-30T16:50:30;11.57;;;9.20;;
41964;SDS011;50120;53.250;8.702;2022-09-30T16:53:13;9.68;;;7.75;;
41964;SDS011;50120;53.250;8.702;2022-09-30T16:55:39;10.38;;;8.38;;
41964;SDS011;50120;53.250;8.702;2022-09-30T16:58:05;11.90;;;8.02;;
41964;SDS011;50120;53.250;8.702;2022-09-30T17:00:30;11.63;;;7.55;;
41964;SDS011;50120;53.250;8.702;2022-09-30T17:02:57;10.60;;;8.13;;
41964;SDS011;50120;53.250;8.702;2022-09-30T17:05:24;11.45;;;9.75;;
41964;SDS011;50120;53.250;8.702;2022-09-30T17:07:57;10.90;;;8.50;;
41964;SDS011;50120;53.250;8.702;2022-09-30T17:10:25;11.82;;;8.88;;
41964;SDS011;50120;53.250;8.702;2022-09-30T17:12:53;13.27;;;9.20;;
41964;SDS011;50120;53.250;8.702;2022-09-30T17:15:20;11.13;;;8.50;;
41964;SDS011;50120;53.250;8.702;2022-09-30T17:17:46;12.57;;;9.52;;
41964;SDS011;50120;53.250;8.702;2022-09-30T17:20:12;12.48;;;8.90;;
41964;SDS011;50120;53.250;8.702;2022-09-30T17:22:38;12.13;;;8.88;;
41964;SDS011;50120;53.250;8.702;2022-09-30T17:25:05;12.93;;;9.30;;
41964;SDS011;50120;53.250;8.702;2022-09-30T17:27:31;9.73;;;8.52;;
41964;SDS011;50120;53.250;8.702;2022-09-30T17:29:57;11.55;;;9.75;;
41964;SDS011;50120;53.250;8.702;2022-09-30T17:32:25;12.73;;;10.00;;
41964;SDS011;50120;53.250;8.702;2022-09-30T17:34:51;12.38;;;9.25;;
41964;SDS011;50120;53.250;8.702;2022-09-30T17:37:17;15.23;;;9.55;;
41964;SDS011;50120;53.250;8.702;2022-09-30T17:39:43;15.10;;;10.27;;
41964;SDS011;50120;53.250;8.702;2022-09-30T17:42:17;17.80;;;10.30;;
41964;SDS011;50120;53.250;8.702;2022-09-30T17:45:01;18.80;;;10.57;;
41964;SDS011;50120;53.250;8.702;2022-09-30T17:47:27;15.63;;;10.38;;
41964;SDS011;50120;53.250;8.702;2022-09-30T17:49:53;16.20;;;10.38;;
41964;SDS011;50120;53.250;8.702;2022-09-30T17:52:19;13.52;;;10.15;;
41964;SDS011;50120;53.250;8.702;2022-09-30T17:54:45;15.43;;;10.10;;
41964;SDS011;50120;53.250;8.702;2022-09-30T17:57:11;18.05;;;10.88;;
41964;SDS011;50120;53.250;8.702;2022-09-30T17:59:37;19.15;;;10.85;;
41964;SDS011;50120;53.250;8.702;2022-09-30T18:02:03;14.30;;;10.50;;
41964;SDS011;50120;53.250;8.702;2022-09-30T18:04:29;17.85;;;12.18;;
41964;SDS011;50120;53.250;8.702;2022-09-30T18:06:55;19.00;;;11.88;;
41964;SDS011;50120;53.250;8.702;2022-09-30T18:09:21;17.20;;;11.57;;
41964;SDS011;50120;53.250;8.702;2022-09-30T18:11:47;15.30;;;10.95;;
41964;SDS011;50120;53.250;8.702;2022-09-30T18:14:13;15.23;;;10.52;;
41964;SDS011;50120;53.250;8.702;2022-09-30T18:16:40;17.10;;;11.52;;
41964;SDS011;50120;53.250;8.702;2022-09-30T18:19:06;15.25;;;11.45;;
41964;SDS011;50120;53.250;8.702;2022-09-30T18:21:33;15.77;;;11.35;;
41964;SDS011;50120;53.250;8.702;2022-09-30T18:24:00;20.17;;;11.57;;
41964;SDS011;50120;53.250;8.702;2022-09-30T18:26:27;14.10;;;10.90;;
41964;SDS011;50120;53.250;8.702;2022-09-30T18:28:54;17.52;;;11.48;;
41964;SDS011;50120;53.250;8.702;2022-09-30T18:31:22;17.58;;;12.65;;